createdAt,value
2018-11-05T00:00:38.020Z,11.97
2018-11-05T00:03:08.370Z,11.96
2018-11-05T00:05:38.480Z,12.02
2018-11-05T00:08:08.524Z,12.00
2018-11-05T00:10:38.738Z,12.12
2018-11-05T00:13:08.701Z,12.09
2018-11-05T00:15:38.743Z,12.10
2018-11-05T00:18:08.798Z,12.08
2018-11-05T00:20:38.645Z,12.03
2018-11-05T00:23:08.613Z,11.96
2018-11-05T00:25:38.656Z,12.00
2018-11-05T00:28:08.579Z,12.00
2018-11-05T00:30:38.668Z,12.02
2018-11-05T00:33:08.495Z,11.97
2018-11-05T00:35:38.562Z,11.99
2018-11-05T00:38:08.627Z,11.93
2018-11-05T00:40:38.496Z,11.96
2018-11-05T00:43:08.563Z,11.89
2018-11-05T00:45:38.573Z,11.83
2018-11-05T00:48:08.609Z,11.81
2018-11-05T00:50:38.545Z,11.81
2018-11-05T00:53:08.557Z,11.81
2018-11-05T00:55:38.800Z,11.87
2018-11-05T00:58:08.581Z,11.91
2018-11-05T01:00:38.608Z,11.91
2018-11-05T01:03:08.539Z,11.95
2018-11-05T01:05:38.530Z,11.99
2018-11-05T01:08:08.577Z,11.99
2018-11-05T01:10:38.673Z,12.02
2018-11-05T01:13:08.542Z,11.98
2018-11-05T01:15:38.556Z,11.98
2018-11-05T01:18:08.593Z,11.96
2018-11-05T01:20:38.570Z,11.96
2018-11-05T01:23:08.576Z,12.00
2018-11-05T01:25:38.674Z,11.93
2018-11-05T01:28:08.569Z,11.94
2018-11-05T01:30:38.625Z,11.92
2018-11-05T01:33:08.567Z,11.95
2018-11-05T01:35:38.579Z,11.99
2018-11-05T01:38:08.833Z,11.92
2018-11-05T01:40:38.604Z,11.95
2018-11-05T01:43:08.517Z,11.93
2018-11-05T01:45:38.617Z,11.90
2018-11-05T01:48:08.457Z,11.88
2018-11-05T01:50:38.524Z,11.89
2018-11-05T01:53:08.498Z,11.87
2018-11-05T01:55:38.670Z,11.89
2018-11-05T01:58:09.405Z,11.82
2018-11-05T02:00:39.452Z,11.93
2018-11-05T02:03:09.568Z,11.97
2018-11-05T02:05:39.598Z,11.96
2018-11-05T02:08:09.497Z,11.95
2018-11-05T02:10:39.750Z,11.88
2018-11-05T02:13:09.740Z,11.97
2018-11-05T02:15:39.722Z,11.97
2018-11-05T02:18:09.564Z,11.97
2018-11-05T02:20:39.495Z,12.05
2018-11-05T02:23:09.552Z,12.03
2018-11-05T02:25:39.655Z,12.02
2018-11-05T02:28:09.764Z,12.04
2018-11-05T02:30:39.608Z,12.01
2018-11-05T02:33:09.414Z,11.97
2018-11-05T02:35:39.526Z,11.92
2018-11-05T02:38:09.535Z,12.00
2018-11-05T02:40:39.599Z,11.91
2018-11-05T02:43:09.578Z,11.89
2018-11-05T02:45:39.513Z,11.83
2018-11-05T02:48:09.562Z,11.84
2018-11-05T02:50:39.427Z,11.78
2018-11-05T02:53:09.653Z,11.76
2018-11-05T02:55:39.602Z,11.75
2018-11-05T02:58:09.429Z,11.70
2018-11-05T03:00:39.620Z,11.74
2018-11-05T03:03:09.454Z,11.85
2018-11-05T03:05:39.552Z,11.68
2018-11-05T03:08:09.490Z,11.73
2018-11-05T03:10:39.519Z,11.69
2018-11-05T03:13:09.665Z,11.75
2018-11-05T03:15:39.834Z,11.63
2018-11-05T03:18:09.813Z,11.74
2018-11-05T03:20:39.569Z,11.65
2018-11-05T03:23:09.389Z,11.60
2018-11-05T03:25:39.981Z,11.61
2018-11-05T03:28:09.713Z,11.48
2018-11-05T03:30:39.625Z,11.50
2018-11-05T03:33:09.549Z,11.41
2018-11-05T03:35:39.771Z,11.31
2018-11-05T03:38:09.706Z,11.34
2018-11-05T03:40:39.622Z,11.37
2018-11-05T03:43:09.877Z,11.30
2018-11-05T03:45:39.707Z,11.21
2018-11-05T03:48:09.909Z,11.12
2018-11-05T03:50:39.936Z,11.19
2018-11-05T03:53:10.090Z,11.20
2018-11-05T03:55:40.094Z,11.17
2018-11-05T03:58:09.988Z,11.23
2018-11-05T04:00:40.521Z,11.27
2018-11-05T04:03:11.161Z,11.23
2018-11-05T04:05:42.109Z,11.14
2018-11-05T04:08:12.942Z,11.09
2018-11-05T04:10:44.468Z,11.11
2018-11-05T04:13:14.971Z,10.92
2018-11-05T04:15:46.555Z,11.15
2018-11-05T04:18:17.403Z,11.10
2018-11-05T04:20:48.425Z,11.14
2018-11-05T04:23:19.014Z,11.14
2018-11-05T04:25:50.359Z,11.16
2018-11-05T04:28:21.245Z,11.10
2018-11-05T04:30:52.082Z,11.00
2018-11-05T04:33:23.310Z,10.97
2018-11-05T04:35:54.005Z,11.00
2018-11-05T04:38:25.184Z,11.00
2018-11-05T04:40:56.403Z,11.06
2018-11-05T04:43:26.909Z,11.12
2018-11-05T04:45:59.197Z,11.10
2018-11-05T04:48:29.624Z,11.12
2018-11-05T04:51:00.913Z,11.10
2018-11-05T04:53:31.330Z,11.09
2018-11-05T04:56:02.186Z,11.05
2018-11-05T04:58:32.984Z,11.03
2018-11-05T05:01:04.771Z,11.09
2018-11-05T05:03:35.251Z,11.01
2018-11-05T05:06:06.442Z,10.98
2018-11-05T05:08:37.022Z,10.96
2018-11-05T05:11:08.569Z,10.96
2018-11-05T05:13:39.154Z,10.95
2018-11-05T05:16:11.361Z,10.90
2018-11-05T05:18:42.703Z,10.85
2018-11-05T05:21:12.650Z,10.87
2018-11-05T05:23:43.129Z,10.83
2018-11-05T05:26:14.473Z,10.85
2018-11-05T05:28:44.991Z,10.90
2018-11-05T05:31:16.444Z,10.90
2018-11-05T05:33:46.949Z,10.88
2018-11-05T05:36:18.422Z,10.90
2018-11-05T05:38:49.037Z,10.87
2018-11-05T05:41:20.665Z,10.87
2018-11-05T05:43:51.284Z,10.84
2018-11-05T05:46:22.202Z,10.85
2018-11-05T05:48:53.007Z,10.86
2018-11-05T05:51:24.433Z,10.84
2018-11-05T05:53:55.066Z,10.82
2018-11-05T05:56:26.731Z,10.83
2018-11-05T05:58:57.256Z,10.87
2018-11-05T06:01:28.228Z,10.86
2018-11-05T06:03:59.070Z,10.89
2018-11-05T06:06:30.830Z,10.87
2018-11-05T06:09:01.279Z,10.85
2018-11-05T06:11:32.387Z,10.97
2018-11-05T06:14:03.085Z,10.99
2018-11-05T06:16:34.799Z,10.91
2018-11-05T06:19:05.796Z,10.93
2018-11-05T06:21:36.695Z,10.90
2018-11-05T06:24:07.354Z,10.96
2018-11-05T06:26:38.342Z,10.88
2018-11-05T06:29:09.110Z,10.92
2018-11-05T06:31:40.187Z,10.85
2018-11-05T06:34:11.120Z,10.90
2018-11-05T06:36:42.523Z,10.96
2018-11-05T06:39:14.400Z,10.90
2018-11-05T06:41:44.438Z,10.95
2018-11-05T06:44:15.245Z,10.92
2018-11-05T06:46:46.371Z,10.89
2018-11-05T06:49:17.017Z,10.86
2018-11-05T06:51:48.543Z,10.84
2018-11-05T06:54:19.378Z,10.91
2018-11-05T06:56:50.221Z,10.93
2018-11-05T06:59:20.990Z,10.97
2018-11-05T07:01:52.470Z,10.91
2018-11-05T07:04:23.051Z,10.89
2018-11-05T07:06:54.461Z,10.99
2018-11-05T07:09:25.024Z,10.96
2018-11-05T07:11:56.597Z,11.00
2018-11-05T07:14:27.246Z,11.05
2018-11-05T07:16:58.314Z,11.08
2018-11-05T07:19:29.094Z,11.17
2018-11-05T07:22:00.289Z,11.22
2018-11-05T07:24:31.031Z,11.35
2018-11-05T07:27:02.437Z,11.45
2018-11-05T07:29:32.981Z,11.58
2018-11-05T07:32:04.629Z,11.69
2018-11-05T07:34:35.356Z,11.71
2018-11-05T07:37:06.748Z,11.84
2018-11-05T07:39:37.230Z,11.97
2018-11-05T07:42:08.097Z,11.99
2018-11-05T07:44:39.371Z,12.09
2018-11-05T07:47:10.304Z,12.22
2018-11-05T07:49:41.097Z,12.30
2018-11-05T07:52:12.469Z,12.38
2018-11-05T07:54:43.038Z,12.46
2018-11-05T07:57:15.537Z,12.56
2018-11-05T07:59:45.330Z,12.65
2018-11-05T08:02:16.246Z,12.70
2018-11-05T08:04:46.991Z,12.79
2018-11-05T08:07:18.433Z,12.84
2018-11-05T08:09:49.004Z,12.90
2018-11-05T08:12:20.443Z,12.97
2018-11-05T08:14:51.165Z,13.00
2018-11-05T08:17:22.128Z,13.12
2018-11-05T08:19:53.483Z,13.18
2018-11-05T08:22:24.139Z,13.17
2018-11-05T08:24:55.106Z,13.18
2018-11-05T08:27:26.039Z,13.32
2018-11-05T08:29:57.371Z,13.38
2018-11-05T08:32:28.293Z,13.42
2018-11-05T08:34:58.995Z,13.48
2018-11-05T08:37:30.516Z,13.55
2018-11-05T08:40:01.287Z,13.55
2018-11-05T08:42:32.241Z,13.61
2018-11-05T08:45:03.090Z,13.67
2018-11-05T08:47:34.538Z,13.78
2018-11-05T08:50:05.284Z,13.77
2018-11-05T08:52:36.183Z,13.86
2018-11-05T08:55:08.589Z,13.92
2018-11-05T08:57:38.629Z,13.95
2018-11-05T09:00:20.435Z,13.99
2018-11-05T09:02:50.987Z,14.11
2018-11-05T09:05:20.911Z,14.14
2018-11-05T09:07:51.783Z,14.23
2018-11-05T09:10:21.868Z,14.31
2018-11-05T09:12:52.142Z,14.30
2018-11-05T09:15:23.062Z,14.33
2018-11-05T09:17:53.260Z,14.39
2018-11-05T09:20:23.193Z,14.41
2018-11-05T09:22:53.849Z,14.51
2018-11-05T09:25:23.909Z,14.41
2018-11-05T09:27:53.842Z,14.53
2018-11-05T09:30:24.946Z,14.61
2018-11-05T09:32:54.767Z,14.69
2018-11-05T09:35:25.165Z,14.76
2018-11-05T09:37:55.086Z,14.89
2018-11-05T09:40:25.878Z,14.94
2018-11-05T09:42:56.585Z,15.03
2018-11-05T09:45:28.690Z,15.03
2018-11-05T09:47:58.623Z,15.07
2018-11-05T09:50:29.285Z,15.16
2018-11-05T09:53:00.252Z,15.25
2018-11-05T09:55:31.034Z,15.37
2018-11-05T09:58:02.198Z,15.40
2018-11-05T10:00:33.024Z,15.46
2018-11-05T10:03:09.622Z,15.53
2018-11-05T10:05:39.956Z,15.62
2018-11-05T10:08:09.931Z,15.62
2018-11-05T10:10:40.793Z,15.76
2018-11-05T10:13:10.591Z,15.87
2018-11-05T10:15:41.110Z,15.98
2018-11-05T10:18:10.968Z,16.09
2018-11-05T10:20:41.713Z,16.17
2018-11-05T10:23:12.301Z,16.30
2018-11-05T10:25:43.157Z,16.42
2018-11-05T10:28:14.341Z,16.47
2018-11-05T10:30:45.282Z,16.56
2018-11-05T10:33:16.079Z,16.66
2018-11-05T10:35:52.415Z,16.70
2018-11-05T10:38:22.642Z,16.72
2018-11-05T10:40:52.662Z,16.78
2018-11-05T10:43:22.621Z,16.67
2018-11-05T10:45:52.924Z,16.64
2018-11-05T10:48:22.896Z,16.68
2018-11-05T10:50:53.399Z,16.74
2018-11-05T10:53:24.620Z,16.86
2018-11-05T10:55:55.157Z,16.83
2018-11-05T10:58:25.333Z,16.97
2018-11-05T11:01:01.264Z,17.08
2018-11-05T11:03:34.546Z,17.20
2018-11-05T11:06:05.976Z,17.38
2018-11-05T11:08:36.058Z,17.44
2018-11-05T11:11:06.253Z,17.55
2018-11-05T11:13:36.155Z,17.65
2018-11-05T11:16:06.098Z,17.72
2018-11-05T11:18:36.132Z,17.79
2018-11-05T11:21:07.026Z,17.85
2018-11-05T11:23:36.782Z,17.94
2018-11-05T11:26:06.869Z,18.03
2018-11-05T11:28:37.425Z,18.09
2018-11-05T11:31:08.433Z,18.17
2018-11-05T11:33:39.074Z,18.24
2018-11-05T11:36:10.315Z,18.15
2018-11-05T11:38:41.278Z,18.15
2018-11-05T11:41:12.025Z,18.21
2018-11-05T11:43:44.523Z,18.21
2018-11-05T11:46:14.486Z,18.27
2018-11-05T11:48:45.227Z,18.27
2018-11-05T11:51:16.023Z,18.20
2018-11-05T11:53:47.364Z,18.19
2018-11-05T11:56:18.272Z,18.23
2018-11-05T11:58:49.082Z,18.23
2018-11-05T12:01:20.114Z,18.27
2018-11-05T12:03:51.456Z,18.26
2018-11-05T12:06:22.021Z,18.36
2018-11-05T12:08:53.397Z,18.40
2018-11-05T12:11:24.046Z,18.46
2018-11-05T12:13:55.685Z,18.49
2018-11-05T12:16:26.550Z,18.57
2018-11-05T12:18:57.170Z,18.55
2018-11-05T12:21:28.094Z,18.54
2018-11-05T12:23:59.108Z,18.56
2018-11-05T12:26:30.098Z,18.59
2018-11-05T12:29:01.144Z,18.61
2018-11-05T12:31:32.223Z,18.70
2018-11-05T12:34:03.168Z,18.79
2018-11-05T12:36:34.145Z,18.75
2018-11-05T12:39:06.354Z,18.81
2018-11-05T12:41:36.478Z,18.82
2018-11-05T12:44:09.292Z,18.90
2018-11-05T12:46:43.690Z,19.00
2018-11-05T12:49:13.603Z,19.10
2018-11-05T12:51:43.442Z,19.17
2018-11-05T12:54:13.314Z,19.17
2018-11-05T12:56:43.227Z,19.19
2018-11-05T12:59:13.013Z,19.36
2018-11-05T13:01:44.670Z,19.46
2018-11-05T13:04:15.215Z,19.54
2018-11-05T13:06:46.307Z,19.65
2018-11-05T13:09:17.007Z,19.68
2018-11-05T13:11:48.439Z,19.76
2018-11-05T13:14:19.089Z,19.85
2018-11-05T13:16:50.646Z,19.95
2018-11-05T13:19:21.133Z,19.85
2018-11-05T13:21:52.290Z,20.06
2018-11-05T13:24:23.010Z,20.13
2018-11-05T13:26:54.422Z,20.02
2018-11-05T13:29:24.948Z,19.81
2018-11-05T13:31:56.496Z,19.69
2018-11-05T13:34:27.103Z,19.39
2018-11-05T13:36:58.986Z,19.38
2018-11-05T13:39:29.003Z,19.22
2018-11-05T13:42:01.137Z,19.00
2018-11-05T13:44:32.546Z,18.93
2018-11-05T13:47:03.379Z,18.92
2018-11-05T13:49:33.692Z,18.84
2018-11-05T13:52:04.382Z,18.74
2018-11-05T13:54:35.305Z,18.62
2018-11-05T13:57:06.729Z,18.54
2018-11-05T13:59:37.253Z,18.43
2018-11-05T14:02:08.232Z,18.33
2018-11-05T14:04:39.065Z,18.34
2018-11-05T14:07:10.338Z,18.23
2018-11-05T14:09:41.445Z,18.16
2018-11-05T14:12:12.156Z,18.03
2018-11-05T14:14:43.393Z,17.98
2018-11-05T14:17:14.126Z,17.87
2018-11-05T14:19:45.401Z,17.88
2018-11-05T14:22:16.128Z,17.78
2018-11-05T14:24:47.104Z,17.82
2018-11-05T14:27:18.067Z,17.81
2018-11-05T14:29:49.667Z,17.76
2018-11-05T14:32:20.305Z,17.63
2018-11-05T14:34:51.048Z,17.66
2018-11-05T14:37:22.571Z,17.69
2018-11-05T14:39:53.360Z,17.57
2018-11-05T14:42:24.365Z,17.48
2018-11-05T14:44:55.032Z,17.42
2018-11-05T14:47:26.525Z,17.41
2018-11-05T14:49:57.140Z,17.35
2018-11-05T14:52:28.182Z,17.25
2018-11-05T14:54:58.132Z,17.25
2018-11-05T14:57:29.654Z,17.22
2018-11-05T15:00:00.365Z,17.17
2018-11-05T15:02:36.061Z,17.04
2018-11-05T15:05:06.549Z,17.03
2018-11-05T15:07:37.087Z,16.93
2018-11-05T15:10:09.073Z,17.00
2018-11-05T15:12:39.042Z,16.90
2018-11-05T15:15:10.395Z,16.87
2018-11-05T15:17:41.599Z,16.84
2018-11-05T15:20:13.931Z,17.03
2018-11-05T15:22:44.178Z,17.10
2018-11-05T15:25:14.924Z,17.16
2018-11-05T15:27:45.089Z,17.30
2018-11-05T15:30:17.893Z,17.32
2018-11-05T15:32:47.817Z,17.36
2018-11-05T15:35:18.018Z,17.21
2018-11-05T15:37:47.962Z,17.20
2018-11-05T15:40:19.280Z,17.33
2018-11-05T15:42:49.479Z,17.33
2018-11-05T15:45:21.181Z,17.34
2018-11-05T15:47:51.284Z,17.20
2018-11-05T15:50:22.158Z,17.24
2018-11-05T15:52:52.254Z,17.27
2018-11-05T15:55:22.461Z,17.15
2018-11-05T15:57:53.048Z,16.91
2018-11-05T16:00:25.360Z,16.81
2018-11-05T16:02:56.738Z,16.48
2018-11-05T16:05:26.787Z,16.66
2018-11-05T16:07:57.244Z,16.47
2018-11-05T16:10:28.140Z,16.40
2018-11-05T16:12:58.966Z,16.50
2018-11-05T16:15:30.356Z,16.31
2018-11-05T16:18:01.624Z,16.37
2018-11-05T16:20:32.177Z,16.36
2018-11-05T16:23:03.082Z,16.29
2018-11-05T16:25:34.413Z,16.25
2018-11-05T16:28:05.076Z,16.25
2018-11-05T16:30:36.710Z,16.15
2018-11-05T16:33:07.630Z,16.09
2018-11-05T16:35:38.415Z,16.10
2018-11-05T16:38:09.038Z,16.03
2018-11-05T16:40:40.518Z,15.98
2018-11-05T16:43:11.328Z,15.94
2018-11-05T16:45:42.294Z,15.93
2018-11-05T16:48:12.956Z,15.95
2018-11-05T16:50:44.457Z,15.96
2018-11-05T16:53:14.965Z,15.97
2018-11-05T16:55:46.409Z,15.84
2018-11-05T16:58:16.981Z,15.85
2018-11-05T17:00:48.482Z,15.90
2018-11-05T17:03:19.093Z,15.95
2018-11-05T17:05:50.189Z,16.00
2018-11-05T17:08:21.226Z,16.02
2018-11-05T17:10:52.120Z,15.98
2018-11-05T17:13:23.396Z,15.88
2018-11-05T17:15:54.207Z,15.79
2018-11-05T17:18:24.982Z,15.65
2018-11-05T17:20:55.560Z,15.74
2018-11-05T17:23:26.256Z,15.66
2018-11-05T17:25:57.145Z,15.68
2018-11-05T17:28:28.274Z,15.51
2018-11-05T17:30:59.050Z,15.47
2018-11-05T17:33:30.331Z,15.55
2018-11-05T17:36:01.077Z,15.52
2018-11-05T17:38:32.256Z,15.46
2018-11-05T17:41:03.081Z,15.39
2018-11-05T17:43:34.268Z,15.31
2018-11-05T17:46:05.123Z,15.25
2018-11-05T17:48:35.954Z,15.24
2018-11-05T17:51:08.321Z,15.18
2018-11-05T17:53:38.040Z,15.24
2018-11-05T17:56:09.417Z,15.25
2018-11-05T17:58:39.905Z,15.32
2018-11-05T18:01:11.425Z,15.28
2018-11-05T18:03:42.031Z,15.26
2018-11-05T18:06:13.092Z,15.24
2018-11-05T18:08:44.351Z,15.19
2018-11-05T18:11:15.225Z,15.12
2018-11-05T18:13:46.054Z,15.08
2018-11-05T18:16:17.501Z,15.08
2018-11-05T18:18:48.212Z,15.04
2018-11-05T18:21:19.367Z,15.10
2018-11-05T18:23:49.977Z,15.06
2018-11-05T18:26:21.757Z,15.02
2018-11-05T18:28:52.185Z,15.07
2018-11-05T18:31:23.126Z,15.08
2018-11-05T18:33:53.973Z,15.04
2018-11-05T18:36:25.397Z,14.97
2018-11-05T18:38:56.275Z,14.71
2018-11-05T18:41:27.105Z,14.80
2018-11-05T18:43:58.338Z,14.90
2018-11-05T18:46:29.416Z,14.89
2018-11-05T18:49:00.033Z,14.92
2018-11-05T18:51:39.430Z,14.93
2018-11-05T18:54:10.250Z,14.93
2018-11-05T18:56:40.818Z,14.90
2018-11-05T18:59:10.705Z,14.93
2018-11-05T19:01:40.778Z,14.93
2018-11-05T19:04:10.784Z,14.92
2018-11-05T19:06:40.910Z,14.89
2018-11-05T19:09:10.272Z,14.82
2018-11-05T19:11:40.007Z,14.90
2018-11-05T19:14:10.227Z,14.89
2018-11-05T19:16:41.349Z,14.84
2018-11-05T19:19:12.158Z,14.88
2018-11-05T19:21:43.061Z,14.93
2018-11-05T19:24:14.441Z,14.89
2018-11-05T19:26:45.063Z,14.89
2018-11-05T19:29:16.300Z,14.83
2018-11-05T19:31:46.993Z,14.91
2018-11-05T19:34:18.300Z,14.93
2018-11-05T19:36:49.393Z,14.97
2018-11-05T19:39:20.044Z,14.93
2018-11-05T19:41:51.501Z,14.98
2018-11-05T19:44:22.110Z,14.91
2018-11-05T19:46:52.013Z,14.93
2018-11-05T19:49:23.379Z,14.91
2018-11-05T19:51:53.948Z,14.87
2018-11-05T19:54:25.549Z,14.83
2018-11-05T19:56:56.041Z,14.82
2018-11-05T19:59:27.354Z,14.83
2018-11-05T20:01:57.929Z,14.70
2018-11-05T20:04:29.416Z,14.71
2018-11-05T20:06:59.966Z,14.80
2018-11-05T20:09:31.407Z,14.77
2018-11-05T20:12:02.120Z,14.79
2018-11-05T20:14:33.039Z,14.70
2018-11-05T20:17:04.349Z,14.69
2018-11-05T20:19:35.107Z,14.73
2018-11-05T20:22:05.945Z,14.66
2018-11-05T20:24:37.579Z,14.69
2018-11-05T20:27:08.142Z,14.67
2018-11-05T20:29:39.353Z,14.72
2018-11-05T20:32:10.416Z,14.75
2018-11-05T20:34:41.402Z,14.66
2018-11-05T20:37:12.178Z,14.70
2018-11-05T20:39:43.612Z,14.65
2018-11-05T20:42:14.482Z,14.64
2018-11-05T20:44:45.156Z,14.57
2018-11-05T20:47:16.357Z,14.62
2018-11-05T20:49:47.400Z,14.53
2018-11-05T20:52:18.709Z,14.48
2018-11-05T20:54:49.241Z,14.35
2018-11-05T20:57:20.055Z,14.35
2018-11-05T20:59:51.406Z,14.31
2018-11-05T21:02:22.109Z,14.30
2018-11-05T21:04:53.197Z,14.26
2018-11-05T21:07:24.111Z,14.27
2018-11-05T21:09:55.113Z,14.16
2018-11-05T21:12:26.405Z,14.11
2018-11-05T21:14:57.287Z,14.04
2018-11-05T21:17:28.194Z,14.17
2018-11-05T21:20:00.398Z,14.18
2018-11-05T21:22:30.400Z,14.06
2018-11-05T21:25:01.098Z,14.03
2018-11-05T21:27:32.496Z,13.99
2018-11-05T21:30:03.169Z,13.92
2018-11-05T21:32:37.686Z,13.87
2018-11-05T21:35:09.323Z,13.77
2018-11-05T21:37:40.026Z,13.74
2018-11-05T21:40:11.475Z,13.63
2018-11-05T21:42:42.152Z,13.60
2018-11-05T21:45:13.333Z,13.53
2018-11-05T21:47:44.668Z,13.48
2018-11-05T21:50:16.484Z,13.50
2018-11-05T21:52:47.449Z,13.44
2018-11-05T21:55:17.397Z,13.41
2018-11-05T21:57:49.148Z,13.36
2018-11-05T22:00:21.322Z,13.33
2018-11-05T22:02:57.071Z,13.26
2018-11-05T22:05:27.156Z,13.23
2018-11-05T22:07:57.468Z,13.32
2018-11-05T22:10:27.841Z,13.34
2018-11-05T22:12:58.303Z,13.30
2018-11-05T22:15:35.638Z,13.25
2018-11-05T22:18:06.246Z,13.20
2018-11-05T22:20:36.222Z,13.16
2018-11-05T22:23:06.434Z,13.04
2018-11-05T22:25:36.978Z,12.97
2018-11-05T22:28:07.373Z,12.84
2018-11-05T22:30:37.297Z,12.79
2018-11-05T22:33:09.953Z,12.73
2018-11-05T22:35:40.120Z,12.80
2018-11-05T22:38:10.122Z,12.92
2018-11-05T22:40:40.081Z,12.94
2018-11-05T22:43:09.944Z,12.82
2018-11-05T22:45:39.776Z,12.78
2018-11-05T22:48:09.599Z,12.83
2018-11-05T22:50:39.448Z,12.74
2018-11-05T22:53:09.269Z,12.65
2018-11-05T22:55:39.552Z,12.59
2018-11-05T22:58:09.413Z,12.48
2018-11-05T23:00:44.776Z,12.50
2018-11-05T23:03:19.811Z,12.31
2018-11-05T23:05:50.117Z,12.46
2018-11-05T23:08:19.857Z,12.48
2018-11-05T23:10:49.750Z,12.43
2018-11-05T23:13:19.848Z,12.34
2018-11-05T23:15:50.085Z,12.27
2018-11-05T23:18:19.808Z,12.22
2018-11-05T23:20:49.794Z,12.28
2018-11-05T23:23:19.550Z,12.26
2018-11-05T23:25:49.665Z,12.35
2018-11-05T23:28:19.439Z,12.32
2018-11-05T23:30:49.909Z,12.15
2018-11-05T23:33:21.524Z,12.20
2018-11-05T23:42:49.143Z,12.13
2018-11-05T23:45:18.937Z,12.16
2018-11-05T23:47:49.556Z,12.13
2018-11-05T23:50:19.584Z,12.09
2018-11-05T23:52:49.480Z,12.10
2018-11-05T23:55:19.531Z,12.12
2018-11-05T23:57:49.616Z,12.13
